Time;durP1;ratioP1;P1;durP2;ratioP2;P2;SDS_P1;SDS_P2;PMS_P1;PMS_P2;Temp;Humidity;BMP_temperature;BMP_pressure;BME280_temperature;BME280_humidity;BME280_pressure;Samples;Min_cycle;Max_cycle;Signal;HPM_P1;HPM_P2
2022/02/18 00:07:32;;;;;;;9.80;5.55;;;;;;;;;;19813884;30;20074;-61
2022/02/18 00:17:33;;;;;;;10.15;6.13;;;;;;;;;;19814313;30;20567;-61
2022/02/18 00:27:36;;;;;;;8.68;5.43;;;;;;;;;;19813032;29;20498;-60
2022/02/18 00:37:38;;;;;;;12.35;6.55;;;;;;;;;;19814018;30;20062;-61
2022/02/18 00:47:40;;;;;;;13.00;6.43;;;;;;;;;;19820732;29;20056;-60
2022/02/18 00:57:42;;;;;;;13.20;6.65;;;;;;;;;;19826154;30;20131;-62
2022/02/18 01:07:44;;;;;;;11.77;6.72;;;;;;;;;;19825439;30;20059;-61
2022/02/18 01:17:46;;;;;;;10.30;5.78;;;;;;;;;;19824660;30;20143;-61
2022/02/18 01:27:48;;;;;;;12.00;6.53;;;;;;;;;;19823744;29;20120;-61
2022/02/18 01:37:53;;;;;;;10.88;6.20;;;;;;;;;;19823606;30;20545;-62
2022/02/18 01:47:55;;;;;;;13.60;7.37;;;;;;;;;;19823068;30;20059;-63
2022/02/18 01:57:58;;;;;;;9.35;6.00;;;;;;;;;;19821239;29;20055;-60
2022/02/18 02:08:01;;;;;;;11.18;5.95;;;;;;;;;;19820782;30;20055;-61
2022/02/18 02:18:03;;;;;;;9.63;6.50;;;;;;;;;;19820912;30;20059;-61
2022/02/18 02:28:06;;;;;;;8.48;6.57;;;;;;;;;;19819478;30;20146;-61
2022/02/18 02:38:14;;;;;;;10.88;6.75;;;;;;;;;;19819740;30;20062;-60
2022/02/18 02:48:23;;;;;;;8.45;6.03;;;;;;;;;;19818375;30;20093;-60
2022/02/18 02:58:28;;;;;;;10.25;6.50;;;;;;;;;;19818348;30;20474;-61
2022/02/18 03:08:35;;;;;;;9.63;6.15;;;;;;;;;;19817050;29;20061;-60
2022/02/18 03:18:38;;;;;;;10.27;6.10;;;;;;;;;;19816841;30;20070;-60
2022/02/18 03:28:44;;;;;;;11.20;6.18;;;;;;;;;;19816434;29;20459;-60
2022/02/18 03:38:48;;;;;;;13.43;6.77;;;;;;;;;;19815549;30;20600;-59
2022/02/18 03:48:52;;;;;;;11.68;7.20;;;;;;;;;;19815763;30;20070;-60
2022/02/18 03:58:54;;;;;;;16.00;7.93;;;;;;;;;;19814920;30;20138;-59
2022/02/18 04:08:57;;;;;;;11.77;7.70;;;;;;;;;;19814186;30;20094;-60
2022/02/18 04:19:00;;;;;;;10.98;6.75;;;;;;;;;;19816737;29;20134;-61
2022/02/18 04:29:03;;;;;;;9.63;6.68;;;;;;;;;;19827705;29;20067;-59
2022/02/18 04:39:06;;;;;;;11.02;7.45;;;;;;;;;;19827615;30;20051;-60
2022/02/18 04:49:16;;;;;;;13.68;7.22;;;;;;;;;;19826525;30;20059;-60
2022/02/18 04:59:19;;;;;;;11.05;7.50;;;;;;;;;;19826460;30;20202;-60
2022/02/18 05:09:22;;;;;;;12.75;8.18;;;;;;;;;;19824985;30;20051;-61
2022/02/18 05:19:24;;;;;;;9.90;7.57;;;;;;;;;;19824387;29;20409;-61
2022/02/18 05:29:26;;;;;;;13.18;8.75;;;;;;;;;;19822344;30;20425;-60
2022/02/18 05:39:29;;;;;;;11.05;7.50;;;;;;;;;;19824455;30;20101;-60
2022/02/18 05:49:32;;;;;;;12.27;7.47;;;;;;;;;;19823035;30;20497;-60
2022/02/18 05:59:35;;;;;;;15.45;7.72;;;;;;;;;;19821733;30;20455;-60
2022/02/18 06:09:37;;;;;;;11.70;7.68;;;;;;;;;;19822040;30;20083;-60
2022/02/18 06:19:40;;;;;;;37.65;14.00;;;;;;;;;;19820195;30;20118;-60
2022/02/18 06:29:46;;;;;;;11.70;7.43;;;;;;;;;;19819988;29;20070;-60
2022/02/18 06:39:48;;;;;;;13.43;7.35;;;;;;;;;;19819232;29;20110;-60
2022/02/18 06:49:51;;;;;;;12.68;7.60;;;;;;;;;;19817993;30;20058;-60
2022/02/18 06:59:53;;;;;;;18.27;10.68;;;;;;;;;;19817555;30;20112;-60
2022/02/18 07:09:55;;;;;;;16.77;8.13;;;;;;;;;;19816526;30;20084;-61
2022/02/18 07:19:58;;;;;;;14.20;8.15;;;;;;;;;;19815936;29;20063;-62
2022/02/18 07:30:01;;;;;;;17.13;12.23;;;;;;;;;;19814841;30;20059;-60
2022/02/18 07:40:04;;;;;;;17.92;8.98;;;;;;;;;;19814493;30;20066;-61
2022/02/18 07:50:07;;;;;;;15.52;9.93;;;;;;;;;;19814007;30;20059;-63
2022/02/18 08:00:12;;;;;;;14.00;9.05;;;;;;;;;;19819067;29;20059;-61
2022/02/18 08:10:16;;;;;;;17.30;9.57;;;;;;;;;;19830273;30;20054;-60
2022/02/18 08:20:21;;;;;;;15.03;10.10;;;;;;;;;;19828497;29;20055;-61
2022/02/18 08:30:26;;;;;;;19.87;8.83;;;;;;;;;;19828981;29;20543;-63
2022/02/18 08:40:31;;;;;;;;;;;;;;;;;;19877334;29;20119;-59
2022/02/18 08:50:33;;;;;;;21.15;12.30;;;;;;;;;;19901823;29;19925;-69
2022/02/18 09:00:36;;;;;;;21.48;10.65;;;;;;;;;;19901284;29;20101;-64
2022/02/18 09:10:40;;;;;;;22.33;11.75;;;;;;;;;;19899853;29;20058;-60
2022/02/18 09:20:44;;;;;;;22.17;13.80;;;;;;;;;;19899385;29;20415;-59
2022/02/18 09:30:47;;;;;;;25.05;15.40;;;;;;;;;;19886927;29;20093;-66
2022/02/18 09:40:49;;;;;;;35.60;19.63;;;;;;;;;;19898088;29;20070;-71
2022/02/18 09:50:52;;;;;;;26.65;19.38;;;;;;;;;;19898350;29;20146;-68
2022/02/18 10:00:54;;;;;;;29.42;16.90;;;;;;;;;;19897670;29;20061;-65
2022/02/18 10:10:58;;;;;;;28.38;16.95;;;;;;;;;;19897251;29;20117;-70
2022/02/18 10:21:00;;;;;;;29.03;18.77;;;;;;;;;;19878963;29;20054;-68
2022/02/18 10:31:06;;;;;;;25.27;16.85;;;;;;;;;;19898442;29;20050;-61
2022/02/18 10:41:20;;;;;;;30.98;16.90;;;;;;;;;;19882123;29;20500;-66
2022/02/18 10:51:30;;;;;;;22.37;14.27;;;;;;;;;;19892520;29;20055;-63
2022/02/18 11:01:32;;;;;;;21.05;12.27;;;;;;;;;;19892992;29;20466;-63
2022/02/18 11:11:36;;;;;;;18.58;11.35;;;;;;;;;;19801306;29;20058;-58
2022/02/18 11:21:39;;;;;;;19.10;13.05;;;;;;;;;;19742966;29;20497;-57
2022/02/18 11:31:47;;;;;;;23.35;13.77;;;;;;;;;;19749742;30;20051;-64
2022/02/18 11:41:55;;;;;;;20.77;11.75;;;;;;;;;;19740447;30;20394;-65
2022/02/18 11:52:07;;;;;;;19.08;11.57;;;;;;;;;;19744597;30;20548;-60
2022/02/18 12:02:10;;;;;;;16.90;9.50;;;;;;;;;;19860191;29;20512;-64
2022/02/18 12:12:20;;;;;;;17.77;11.43;;;;;;;;;;19831958;29;20047;-60
2022/02/18 12:22:36;;;;;;;15.30;10.15;;;;;;;;;;19880958;29;20059;-66
2022/02/18 12:32:38;;;;;;;15.30;10.43;;;;;;;;;;19885247;29;20054;-63
2022/02/18 12:42:42;;;;;;;17.25;10.93;;;;;;;;;;19877533;29;20055;-63
2022/02/18 12:52:45;;;;;;;21.03;11.97;;;;;;;;;;19900589;29;20146;-69
2022/02/18 13:02:49;;;;;;;16.73;10.02;;;;;;;;;;19900457;29;20512;-64
2022/02/18 13:12:51;;;;;;;;;;;;;;;;;;19900187;29;20074;-63
2022/02/18 13:22:55;;;;;;;21.23;12.05;;;;;;;;;;19899275;29;20375;-65
2022/02/18 13:32:59;;;;;;;18.52;12.18;;;;;;;;;;19898824;29;20496;-65
2022/02/18 13:43:02;;;;;;;19.67;13.02;;;;;;;;;;19897475;29;20412;-66
2022/02/18 13:53:04;;;;;;;20.52;13.75;;;;;;;;;;19895439;29;20074;-64
2022/02/18 14:03:07;;;;;;;20.88;13.43;;;;;;;;;;19896918;29;20141;-66
2022/02/18 14:13:27;;;;;;;24.80;12.87;;;;;;;;;;19895517;29;20522;-66
2022/02/18 14:23:33;;;;;;;16.25;11.18;;;;;;;;;;19894187;29;20376;-63
2022/02/18 14:33:36;;;;;;;26.40;11.75;;;;;;;;;;19894673;29;20544;-64
2022/02/18 14:43:51;;;;;;;18.17;11.23;;;;;;;;;;19892368;29;20487;-63
2022/02/18 14:53:54;;;;;;;17.85;9.52;;;;;;;;;;19891221;29;20055;-63
2022/02/18 15:03:56;;;;;;;13.27;8.55;;;;;;;;;;19891832;29;20409;-65
2022/02/18 15:13:58;;;;;;;10.32;7.10;;;;;;;;;;19891265;29;20265;-66
2022/02/18 15:24:00;;;;;;;12.50;8.60;;;;;;;;;;19890133;29;20054;-63
2022/02/18 15:44:23;;;;;;;14.95;8.93;;;;;;;;;;19889503;29;20059;-63
2022/02/18 15:54:29;;;;;;;15.30;10.07;;;;;;;;;;19888935;29;20141;-63
2022/02/18 16:04:35;;;;;;;10.55;7.18;;;;;;;;;;19888613;29;20146;-62
2022/02/18 16:14:37;;;;;;;13.32;6.97;;;;;;;;;;19890861;29;20500;-63
2022/02/18 16:24:40;;;;;;;11.25;6.90;;;;;;;;;;19870997;29;20542;-70
2022/02/18 16:34:42;;;;;;;12.23;7.35;;;;;;;;;;19810882;30;20090;-61
2022/02/18 16:44:45;;;;;;;10.75;6.65;;;;;;;;;;19826586;30;20516;-58
2022/02/18 16:54:47;;;;;;;11.55;6.53;;;;;;;;;;19825295;30;20124;-67
2022/02/18 17:04:49;;;;;;;10.93;6.10;;;;;;;;;;19827014;30;20104;-61
2022/02/18 17:14:51;;;;;;;10.93;6.78;;;;;;;;;;19827935;30;20200;-60
2022/02/18 17:24:53;;;;;;;10.18;5.28;;;;;;;;;;19823063;29;20103;-61
2022/02/18 17:34:55;;;;;;;7.82;5.97;;;;;;;;;;19823287;30;20126;-67
2022/02/18 17:44:57;;;;;;;8.27;5.60;;;;;;;;;;19821308;30;20059;-56
2022/02/18 17:55:00;;;;;;;5.95;4.63;;;;;;;;;;19820545;30;20083;-61
2022/02/18 18:05:02;;;;;;;6.60;4.40;;;;;;;;;;19864121;29;20149;-62
2022/02/18 18:15:04;;;;;;;13.77;6.28;;;;;;;;;;19893229;29;20130;-65
2022/02/18 18:25:06;;;;;;;9.52;5.78;;;;;;;;;;19891925;29;20069;-63
2022/02/18 18:35:08;;;;;;;9.25;5.05;;;;;;;;;;19891266;29;20084;-60
2022/02/18 18:45:11;;;;;;;20.83;13.32;;;;;;;;;;19891023;29;20120;-59
2022/02/18 18:55:13;;;;;;;9.80;6.70;;;;;;;;;;19891239;29;20062;-60
2022/02/18 19:05:15;;;;;;;12.40;7.05;;;;;;;;;;19890385;29;20058;-63
2022/02/18 19:15:17;;;;;;;14.43;7.00;;;;;;;;;;19889847;29;20051;-64
2022/02/18 19:25:19;;;;;;;10.40;5.45;;;;;;;;;;19889737;29;20584;-63
2022/02/18 19:35:21;;;;;;;7.03;4.32;;;;;;;;;;19890208;29;20189;-65
2022/02/18 19:45:23;;;;;;;6.55;3.78;;;;;;;;;;19889394;29;20055;-61
2022/02/18 19:55:26;;;;;;;4.50;3.13;;;;;;;;;;19888243;29;20104;-59
2022/02/18 20:05:29;;;;;;;7.35;3.35;;;;;;;;;;19894987;29;20402;-58
2022/02/18 20:15:33;;;;;;;4.63;3.20;;;;;;;;;;19886104;29;20051;-63
2022/02/18 20:25:36;;;;;;;5.82;3.00;;;;;;;;;;19885963;29;20059;-64
2022/02/18 20:35:40;;;;;;;6.38;3.47;;;;;;;;;;19887271;29;20501;-65
2022/02/18 20:45:43;;;;;;;11.13;5.57;;;;;;;;;;19820641;29;20184;-61
2022/02/18 20:55:45;;;;;;;5.97;4.07;;;;;;;;;;19810910;30;20090;-61
2022/02/18 21:05:47;;;;;;;8.40;5.15;;;;;;;;;;19821052;29;20520;-61
2022/02/18 21:15:48;;;;;;;6.68;3.90;;;;;;;;;;19824923;30;20127;-63
2022/02/18 21:25:51;;;;;;;8.13;4.20;;;;;;;;;;19823704;29;20059;-65
2022/02/18 21:35:53;;;;;;;8.70;4.22;;;;;;;;;;19823865;30;20055;-64
2022/02/18 21:45:55;;;;;;;9.70;6.82;;;;;;;;;;19823190;30;20057;-64
2022/02/18 21:56:02;;;;;;;6.90;4.82;;;;;;;;;;19822707;30;20477;-67
2022/02/18 22:06:05;;;;;;;9.05;5.35;;;;;;;;;;19822388;30;20113;-64
2022/02/18 22:16:07;;;;;;;8.95;5.20;;;;;;;;;;19819856;29;20109;-65
2022/02/18 22:26:09;;;;;;;11.52;6.75;;;;;;;;;;19817519;29;20067;-64
2022/02/18 22:36:11;;;;;;;10.95;7.05;;;;;;;;;;19816796;30;20054;-68
2022/02/18 22:46:13;;;;;;;7.10;4.28;;;;;;;;;;19816514;30;20062;-64
2022/02/18 22:56:15;;;;;;;8.30;5.07;;;;;;;;;;19815237;30;20130;-64
2022/02/18 23:06:18;;;;;;;7.30;4.05;;;;;;;;;;19814974;30;20051;-67
2022/02/18 23:16:20;;;;;;;8.07;5.20;;;;;;;;;;19814544;30;20413;-64
2022/02/18 23:26:22;;;;;;;8.25;5.28;;;;;;;;;;19771886;29;1274987;-64
2022/02/18 23:36:24;;;;;;;6.65;4.22;;;;;;;;;;19816558;30;20048;-64
2022/02/18 23:46:27;;;;;;;5.53;3.58;;;;;;;;;;19815259;30;20059;-65
2022/02/18 23:56:29;;;;;;;7.07;3.95;;;;;;;;;;19815002;30;20066;-64
